• UTC

LHBP 180230Z 30011KT 9999 FEW017 SCT027 01/M01 Q1007 NOSIG        

LHDC 172345Z 32009KT 7000 SCT053 BKN083 M00/M02 Q1003        

LHKE 180215Z 30008KT CAVOK M01/M04 Q1008 NOSIG RMK BLU        

LHPA 180215Z 23006KT 9999 FEW047 BKN083 01/M03 Q1010 NOSIG RMK BLU        

LHPR 180215Z AUTO 27014KT 230V290 9999 BKN046 02/M02 Q1009 RMK BLU        

LHSN 180215Z 29016KT 260V330 CAVOK 01/M03 Q1006 NOSIG RMK BLU        

LHUD 180145Z 30014KT CAVOK 02/M03 Q1008